Time;durP1;ratioP1;P1;durP2;ratioP2;P2;SDS_P1;SDS_P2;PMS_P1;PMS_P2;Temp;Humidity;BMP_temperature;BMP_pressure;BME280_temperature;BME280_humidity;BME280_pressure;Samples;Min_cycle;Max_cycle;Signal;HPM_P1;HPM_P2
2021/06/20 00:01:56;;;;;;;14.33;13.23;;;24.80;77.50;;;;;;5113463;28;21014;-84
2021/06/20 00:04:24;;;;;;;14.30;12.53;;;24.80;76.80;;;;;;5113510;28;20747;-84
2021/06/20 00:06:51;;;;;;;13.57;12.37;;;24.90;77.30;;;;;;5113772;28;20664;-84
2021/06/20 00:09:20;;;;;;;13.33;12.03;;;25.00;76.20;;;;;;5113892;28;20612;-84
2021/06/20 00:11:50;;;;;;;13.77;12.47;;;25.00;75.80;;;;;;5113759;28;21149;-83
2021/06/20 00:14:17;;;;;;;16.87;12.10;;;24.80;76.70;;;;;;5113414;28;21009;-83
2021/06/20 00:16:44;;;;;;;13.23;12.03;;;24.60;77.00;;;;;;5113202;28;20647;-84
2021/06/20 00:19:11;;;;;;;14.10;12.90;;;24.40;78.40;;;;;;5113489;28;20623;-84
2021/06/20 00:21:38;;;;;;;14.03;12.60;;;24.50;78.00;;;;;;5113375;28;20633;-83
2021/06/20 00:24:06;;;;;;;13.23;11.93;;;24.50;78.80;;;;;;5113043;28;20693;-83
2021/06/20 00:26:33;;;;;;;12.90;11.77;;;24.40;78.70;;;;;;5113060;28;20651;-84
2021/06/20 00:29:02;;;;;;;14.50;12.97;;;24.50;78.40;;;;;;5112817;28;20620;-85
2021/06/20 00:31:28;;;;;;;12.70;11.70;;;24.60;76.50;;;;;;5113422;28;21165;-84
2021/06/20 00:33:55;;;;;;;13.40;11.20;;;24.70;75.30;;;;;;5113244;28;20991;-84
2021/06/20 00:36:22;;;;;;;12.77;11.00;;;24.80;75.00;;;;;;5112982;28;20747;-84
2021/06/20 00:38:49;;;;;;;13.17;11.90;;;24.80;74.80;;;;;;5113223;28;20607;-84
2021/06/20 00:41:16;;;;;;;13.30;12.00;;;24.70;75.00;;;;;;5112981;28;20655;-86
2021/06/20 00:43:43;;;;;;;12.90;10.33;;;24.70;75.80;;;;;;5112233;28;20676;-84
2021/06/20 00:46:11;;;;;;;12.63;11.63;;;24.70;75.60;;;;;;5112629;28;20629;-84
2021/06/20 00:48:38;;;;;;;15.60;11.30;;;24.80;74.90;;;;;;5113137;28;20671;-84
2021/06/20 00:51:06;;;;;;;12.53;10.70;;;24.70;75.00;;;;;;5112933;28;20600;-84
2021/06/20 00:53:33;;;;;;;17.73;11.57;;;24.80;73.80;;;;;;5112798;28;20632;-83
2021/06/20 00:56:01;;;;;;;17.40;9.87;;;24.80;74.60;;;;;;5112287;28;20638;-84
2021/06/20 00:58:28;;;;;;;18.77;11.40;;;24.90;72.20;;;;;;5112464;28;20615;-84
2021/06/20 01:00:55;;;;;;;16.13;11.20;;;25.00;71.00;;;;;;5112532;28;20599;-84
2021/06/20 01:03:24;;;;;;;17.37;10.80;;;25.00;71.10;;;;;;5112697;28;20623;-83
2021/06/20 01:05:51;;;;;;;24.13;10.13;;;25.10;70.20;;;;;;5111925;28;20630;-83
2021/06/20 01:08:19;;;;;;;15.83;8.60;;;25.10;69.60;;;;;;5112564;28;20615;-83
2021/06/20 01:10:48;;;;;;;14.07;8.87;;;25.10;69.70;;;;;;5099510;28;20725;-85
2021/06/20 01:13:19;;;;;;;31.03;10.27;;;25.20;69.20;;;;;;5103585;28;20668;-83
2021/06/20 01:15:52;;;;;;;21.73;9.90;;;25.10;68.90;;;;;;5104265;28;20751;-84
2021/06/20 01:18:21;;;;;;;26.20;10.90;;;25.20;68.50;;;;;;5102606;28;20733;-84
2021/06/20 01:20:51;;;;;;;31.00;9.70;;;25.20;67.50;;;;;;5112147;28;20662;-84
2021/06/20 01:23:21;;;;;;;17.57;8.40;;;25.20;67.70;;;;;;5111879;28;20632;-83
2021/06/20 01:25:51;;;;;;;25.90;9.77;;;25.20;67.30;;;;;;5104778;28;20630;-84
2021/06/20 01:28:25;;;;;;;29.77;10.30;;;25.30;67.10;;;;;;5112239;28;20625;-84
2021/06/20 01:30:58;;;;;;;19.63;8.70;;;25.30;67.40;;;;;;5112094;28;20629;-84
2021/06/20 01:33:26;;;;;;;31.50;9.87;;;25.20;67.00;;;;;;5112058;28;20692;-84
2021/06/20 01:35:55;;;;;;;19.50;8.97;;;25.20;67.60;;;;;;5111326;28;21296;-84
2021/06/20 01:38:24;;;;;;;24.37;10.23;;;25.20;67.20;;;;;;5111895;28;21196;-84
2021/06/20 01:40:53;;;;;;;16.30;8.33;;;25.20;68.00;;;;;;5111776;28;20638;-84
2021/06/20 01:43:22;;;;;;;22.43;9.40;;;25.10;68.10;;;;;;5111774;28;21347;-84
2021/06/20 01:45:52;;;;;;;19.40;9.03;;;25.10;67.20;;;;;;5111122;28;20627;-84
2021/06/20 01:48:23;;;;;;;21.90;8.40;;;25.10;68.50;;;;;;5110874;28;20622;-83
2021/06/20 01:50:51;;;;;;;18.50;8.90;;;25.00;68.10;;;;;;5111645;28;20627;-83
2021/06/20 01:53:18;;;;;;;31.20;10.43;;;25.00;68.20;;;;;;5111714;28;20637;-83
2021/06/20 01:55:50;;;;;;;22.57;8.63;;;25.00;68.40;;;;;;5111704;28;20654;-83
2021/06/20 01:58:20;;;;;;;15.50;8.10;;;25.00;68.60;;;;;;5111815;28;20607;-84
2021/06/20 02:00:50;;;;;;;21.37;9.20;;;25.00;68.50;;;;;;5111140;28;20728;-84
2021/06/20 02:03:22;;;;;;;22.50;9.73;;;25.00;68.50;;;;;;5111749;28;20615;-83
2021/06/20 02:05:50;;;;;;;21.30;9.57;;;24.90;69.60;;;;;;5111362;28;20631;-82
2021/06/20 02:08:20;;;;;;;12.53;8.50;;;24.90;69.70;;;;;;5110665;28;20988;-83
2021/06/20 02:10:52;;;;;;;24.07;9.93;;;24.80;69.50;;;;;;5110981;28;20695;-84
2021/06/20 02:13:23;;;;;;;18.93;8.60;;;24.80;69.50;;;;;;5110950;28;20654;-83
2021/06/20 02:15:52;;;;;;;22.27;8.57;;;24.80;70.00;;;;;;5111058;28;21232;-83
2021/06/20 02:18:19;;;;;;;20.90;8.87;;;24.70;70.60;;;;;;5111684;28;20621;-83
2021/06/20 02:20:48;;;;;;;15.27;8.40;;;24.70;70.70;;;;;;5111038;28;20647;-83
2021/06/20 02:23:17;;;;;;;23.50;8.60;;;24.70;70.90;;;;;;5110979;28;20625;-83
2021/06/20 02:25:45;;;;;;;27.63;9.57;;;24.70;71.00;;;;;;5110481;28;20731;-83
2021/06/20 02:28:15;;;;;;;15.33;8.30;;;24.60;71.20;;;;;;5110832;28;20626;-83
2021/06/20 02:30:43;;;;;;;20.40;9.43;;;24.60;72.00;;;;;;5111265;28;21055;-83
2021/06/20 02:33:13;;;;;;;26.70;10.63;;;24.60;71.00;;;;;;5111166;28;20644;-84
2021/06/20 02:35:40;;;;;;;19.67;10.43;;;24.60;71.40;;;;;;5110880;28;20642;-83
2021/06/20 02:38:07;;;;;;;24.30;9.23;;;24.60;71.40;;;;;;5110777;28;20638;-84
2021/06/20 02:40:34;;;;;;;17.77;9.23;;;24.50;72.70;;;;;;5110642;28;20625;-84
2021/06/20 02:43:01;;;;;;;17.93;8.73;;;24.50;72.00;;;;;;5110896;28;20656;-83
2021/06/20 02:45:29;;;;;;;18.97;8.77;;;24.50;71.80;;;;;;5110615;28;20679;-84
2021/06/20 02:47:56;;;;;;;17.07;8.10;;;24.50;72.90;;;;;;5110153;28;20669;-84
2021/06/20 02:50:23;;;;;;;15.47;9.20;;;24.40;72.60;;;;;;5110762;28;20671;-84
2021/06/20 02:52:50;;;;;;;25.70;8.37;;;24.60;72.70;;;;;;5110537;28;20614;-84
2021/06/20 02:55:17;;;;;;;24.00;8.30;;;24.40;72.60;;;;;;5110695;28;21303;-83
2021/06/20 02:57:44;;;;;;;28.67;10.87;;;24.40;72.60;;;;;;5110856;28;20618;-84
2021/06/20 03:00:12;;;;;;;21.70;8.07;;;24.40;73.10;;;;;;5110802;28;20671;-84
2021/06/20 03:02:40;;;;;;;17.00;8.20;;;24.40;74.00;;;;;;5110734;28;20610;-83
2021/06/20 03:05:09;;;;;;;25.20;10.60;;;24.40;73.60;;;;;;5110599;28;20622;-84
2021/06/20 03:07:36;;;;;;;27.03;8.27;;;24.40;73.70;;;;;;5109980;28;21032;-84
2021/06/20 03:10:05;;;;;;;15.27;8.83;;;24.30;73.90;;;;;;5110932;28;20645;-83
2021/06/20 03:12:32;;;;;;;17.23;9.83;;;24.20;73.90;;;;;;5111091;28;20624;-83
2021/06/20 03:15:00;;;;;;;18.13;9.27;;;24.20;75.50;;;;;;5110643;28;20650;-84
2021/06/20 03:17:28;;;;;;;16.93;9.63;;;24.20;75.10;;;;;;5110686;28;20963;-84
2021/06/20 03:19:57;;;;;;;15.27;8.70;;;24.20;75.30;;;;;;5110080;28;20610;-83
2021/06/20 03:22:24;;;;;;;16.80;8.60;;;24.20;75.10;;;;;;5110792;28;20614;-83
2021/06/20 03:24:52;;;;;;;20.20;9.53;;;24.20;75.30;;;;;;5114199;28;21060;-83
2021/06/20 03:27:21;;;;;;;22.93;9.10;;;24.20;75.60;;;;;;5114766;28;20619;-84
2021/06/20 03:29:49;;;;;;;17.57;7.20;;;24.10;75.40;;;;;;5114035;28;20670;-84
2021/06/20 03:32:18;;;;;;;17.47;8.73;;;24.10;75.90;;;;;;5114114;28;20610;-83
2021/06/20 03:34:46;;;;;;;18.20;8.57;;;24.00;76.40;;;;;;5114431;28;20612;-83
2021/06/20 03:37:15;;;;;;;23.60;8.00;;;24.10;76.60;;;;;;5114188;28;21565;-84
2021/06/20 03:39:44;;;;;;;17.10;8.60;;;24.00;76.70;;;;;;5114193;28;20607;-84
2021/06/20 03:42:12;;;;;;;20.07;9.17;;;24.00;80.60;;;;;;5114421;28;20634;-84
2021/06/20 03:44:40;;;;;;;21.23;8.07;;;24.00;83.70;;;;;;5114136;28;21160;-84
2021/06/20 03:47:09;;;;;;;12.13;8.53;;;23.90;84.50;;;;;;5113866;28;21015;-84
2021/06/20 03:49:38;;;;;;;23.67;10.43;;;23.80;89.20;;;;;;5113757;28;20625;-84
2021/06/20 03:52:07;;;;;;;13.27;9.63;;;23.80;88.40;;;;;;5110175;28;20992;-85
2021/06/20 03:54:36;;;;;;;14.90;8.67;;;23.90;87.40;;;;;;5114005;28;21186;-84
2021/06/20 03:57:07;;;;;;;21.70;9.30;;;23.90;86.60;;;;;;5113922;28;21023;-84
2021/06/20 03:59:37;;;;;;;15.43;8.87;;;23.80;85.60;;;;;;5113506;28;20613;-85
2021/06/20 04:02:06;;;;;;;16.03;8.00;;;23.80;85.40;;;;;;5114116;28;20620;-84
2021/06/20 04:04:35;;;;;;;12.17;9.20;;;23.70;84.30;;;;;;5113699;28;20609;-84
2021/06/20 04:07:03;;;;;;;16.90;8.87;;;23.70;87.50;;;;;;5113927;28;20640;-84
2021/06/20 04:09:31;;;;;;;17.00;8.70;;;23.60;85.50;;;;;;5113949;28;20623;-83
2021/06/20 04:12:01;;;;;;;15.57;8.07;;;23.60;85.90;;;;;;5113165;28;20663;-83
2021/06/20 04:14:31;;;;;;;15.40;8.10;;;23.50;86.40;;;;;;5113736;28;20673;-84
2021/06/20 04:17:00;;;;;;;14.30;8.53;;;23.40;86.20;;;;;;5113606;28;20683;-84
2021/06/20 04:19:28;;;;;;;16.83;8.13;;;23.40;86.10;;;;;;5113750;28;20613;-84
2021/06/20 04:21:56;;;;;;;16.17;9.33;;;23.50;86.10;;;;;;5113535;28;21064;-84
2021/06/20 04:24:24;;;;;;;17.20;8.60;;;23.60;86.40;;;;;;5113163;28;20666;-84
2021/06/20 04:26:52;;;;;;;16.43;8.67;;;23.50;86.50;;;;;;5113646;28;21033;-84
2021/06/20 04:29:21;;;;;;;14.13;7.27;;;23.50;88.00;;;;;;5113405;28;20621;-84
2021/06/20 04:31:49;;;;;;;15.37;9.27;;;23.50;84.90;;;;;;5112739;28;20732;-84
2021/06/20 04:34:18;;;;;;;16.90;8.50;;;23.50;86.00;;;;;;5112817;28;20631;-84
2021/06/20 04:36:45;;;;;;;14.03;8.30;;;23.50;86.20;;;;;;5113031;28;21193;-85
2021/06/20 04:39:14;;;;;;;17.90;9.00;;;23.50;91.40;;;;;;5113144;28;21173;-85
2021/06/20 04:41:41;;;;;;;18.90;8.37;;;23.40;94.40;;;;;;5113201;28;20725;-86
2021/06/20 04:46:53;;;;;;;14.73;7.77;;;23.30;95.70;;;;;;5112559;27;20641;-85
2021/06/20 04:49:21;;;;;;;18.37;9.03;;;23.20;95.40;;;;;;5112544;28;20616;-85
2021/06/20 04:51:48;;;;;;;14.20;8.37;;;23.20;96.40;;;;;;5111997;28;21420;-85
2021/06/20 04:54:17;;;;;;;19.77;9.13;;;23.00;96.40;;;;;;5112752;28;20700;-85
2021/06/20 04:56:44;;;;;;;14.60;8.33;;;23.00;97.60;;;;;;5112855;28;20659;-85
2021/06/20 04:59:12;;;;;;;18.70;9.10;;;23.10;98.10;;;;;;5112887;28;20613;-84
2021/06/20 05:01:40;;;;;;;10.93;7.80;;;23.20;97.50;;;;;;5112862;28;20708;-84
2021/06/20 05:04:10;;;;;;;12.17;9.53;;;23.10;97.40;;;;;;5112273;28;20619;-85
2021/06/20 05:06:38;;;;;;;18.43;8.50;;;23.10;97.40;;;;;;5112744;28;20633;-85
2021/06/20 05:09:06;;;;;;;11.13;8.10;;;23.00;98.40;;;;;;5112739;28;20681;-85
2021/06/20 05:11:34;;;;;;;15.03;7.70;;;23.10;97.20;;;;;;5112070;28;20613;-85
2021/06/20 05:14:02;;;;;;;17.60;8.83;;;23.20;97.80;;;;;;5112357;28;21108;-85
2021/06/20 05:16:30;;;;;;;10.77;7.50;;;23.10;97.00;;;;;;5111973;28;20643;-84
2021/06/20 05:18:57;;;;;;;8.30;7.30;;;23.30;95.10;;;;;;5112314;28;20721;-84
2021/06/20 05:21:33;;;;;;;13.30;7.07;;;23.30;94.90;;;;;;5112443;28;20671;-84
2021/06/20 05:24:01;;;;;;;9.30;7.73;;;23.20;95.80;;;;;;5112149;28;20634;-84
2021/06/20 05:26:30;;;;;;;12.10;6.43;;;23.10;93.50;;;;;;5112154;28;20674;-84
2021/06/20 05:28:57;;;;;;;12.53;6.60;;;23.20;94.30;;;;;;5111947;28;20616;-84
2021/06/20 05:31:25;;;;;;;12.10;5.70;;;23.20;94.00;;;;;;5111632;28;21060;-83
2021/06/20 05:33:53;;;;;;;10.00;6.20;;;23.30;94.80;;;;;;5112187;28;20715;-83
2021/06/20 05:36:20;;;;;;;10.73;5.83;;;23.30;95.60;;;;;;5111882;28;21428;-84
2021/06/20 05:38:49;;;;;;;14.67;6.30;;;23.30;96.00;;;;;;5112198;28;20658;-84
2021/06/20 05:41:17;;;;;;;7.13;4.70;;;23.40;94.90;;;;;;5111756;28;21033;-84
2021/06/20 05:43:45;;;;;;;12.40;5.70;;;23.40;94.40;;;;;;5111440;28;20673;-83
2021/06/20 05:46:13;;;;;;;12.43;4.83;;;23.30;94.30;;;;;;5110752;28;20728;-83
2021/06/20 05:48:40;;;;;;;16.43;5.33;;;23.30;93.70;;;;;;5112105;28;20613;-83
2021/06/20 05:51:08;;;;;;;16.93;5.30;;;23.20;92.90;;;;;;5111602;28;21065;-83
2021/06/20 05:53:35;;;;;;;8.80;5.00;;;23.20;92.40;;;;;;5111696;28;20606;-84
2021/06/20 05:56:03;;;;;;;7.33;4.70;;;23.20;92.30;;;;;;5111177;28;20605;-83
2021/06/20 05:58:30;;;;;;;10.23;5.43;;;23.30;91.90;;;;;;5111473;28;20609;-83
2021/06/20 06:00:57;;;;;;;14.03;4.93;;;23.40;92.50;;;;;;5111567;28;20719;-84
2021/06/20 06:03:24;;;;;;;14.03;4.93;;;23.20;91.30;;;;;;5110977;28;20976;-84
2021/06/20 06:05:51;;;;;;;5.20;3.70;;;23.30;91.90;;;;;;5111082;28;20624;-84
2021/06/20 06:08:18;;;;;;;10.97;4.77;;;23.50;90.90;;;;;;5111460;28;20606;-84
2021/06/20 06:10:45;;;;;;;7.63;4.70;;;23.40;91.50;;;;;;5110835;28;20608;-83
2021/06/20 06:13:14;;;;;;;10.43;5.17;;;23.50;92.00;;;;;;5111368;28;21214;-84
2021/06/20 06:15:40;;;;;;;10.67;3.80;;;23.40;90.30;;;;;;5111208;28;20618;-84
2021/06/20 06:18:08;;;;;;;6.80;5.10;;;23.60;91.10;;;;;;5111283;28;21025;-83
2021/06/20 06:20:34;;;;;;;9.50;5.30;;;23.70;90.80;;;;;;5111260;28;21276;-83
2021/06/20 06:23:01;;;;;;;8.70;4.70;;;23.80;90.90;;;;;;5110647;28;21194;-83
2021/06/20 06:25:29;;;;;;;6.13;4.20;;;23.90;91.00;;;;;;5110500;28;20648;-83
2021/06/20 06:27:55;;;;;;;7.73;4.30;;;23.90;89.70;;;;;;5111061;28;20598;-83
2021/06/20 06:30:25;;;;;;;8.37;4.33;;;23.90;90.20;;;;;;5111186;28;20615;-83
2021/06/20 06:32:52;;;;;;;7.63;4.43;;;23.90;90.80;;;;;;5110850;28;20597;-83
2021/06/20 06:35:19;;;;;;;7.60;4.70;;;23.90;91.40;;;;;;5110876;28;20629;-83
2021/06/20 06:37:48;;;;;;;8.50;4.20;;;24.00;90.00;;;;;;5110324;28;20647;-84
2021/06/20 06:40:16;;;;;;;11.27;4.13;;;23.90;89.10;;;;;;5110929;28;20621;-83
2021/06/20 06:42:43;;;;;;;6.23;4.50;;;24.00;89.80;;;;;;5110902;28;20659;-83
2021/06/20 06:45:11;;;;;;;6.17;3.30;;;23.90;87.40;;;;;;5110407;28;21224;-83
2021/06/20 06:47:40;;;;;;;6.40;4.17;;;24.00;86.80;;;;;;5110927;28;20622;-83
2021/06/20 06:50:08;;;;;;;8.27;3.50;;;24.20;86.70;;;;;;5111438;28;20615;-82
2021/06/20 06:52:35;;;;;;;8.83;4.47;;;24.10;84.70;;;;;;5110635;28;21236;-82
2021/06/20 06:55:05;;;;;;;7.87;4.10;;;24.00;86.60;;;;;;5110634;28;20659;-82
2021/06/20 06:57:32;;;;;;;12.20;4.50;;;24.00;87.00;;;;;;5112497;28;20661;-83
2021/06/20 07:00:00;;;;;;;6.90;3.77;;;24.00;88.00;;;;;;5115037;28;20626;-83
2021/06/20 07:02:27;;;;;;;5.03;4.07;;;24.10;85.80;;;;;;5115066;28;20623;-83
2021/06/20 07:04:55;;;;;;;4.90;3.70;;;24.10;88.10;;;;;;5114143;28;20676;-82
2021/06/20 07:07:22;;;;;;;10.80;4.40;;;24.10;88.80;;;;;;5115094;28;20665;-83
2021/06/20 07:09:48;;;;;;;12.43;5.03;;;24.20;87.00;;;;;;5115042;28;20650;-82
2021/06/20 07:12:16;;;;;;;5.60;4.27;;;24.20;90.10;;;;;;5114895;28;20614;-83
2021/06/20 07:14:43;;;;;;;6.10;4.07;;;24.10;90.00;;;;;;5114548;28;20628;-83
2021/06/20 07:17:11;;;;;;;16.83;4.73;;;24.10;90.60;;;;;;5114694;28;20639;-83
2021/06/20 07:19:39;;;;;;;16.07;4.63;;;24.00;90.70;;;;;;5114550;28;20630;-83
2021/06/20 07:22:08;;;;;;;8.23;4.23;;;24.10;90.90;;;;;;5114783;28;20683;-83
2021/06/20 07:24:34;;;;;;;14.00;4.63;;;24.20;90.40;;;;;;5113716;28;20680;-84
2021/06/20 07:27:01;;;;;;;5.57;4.30;;;24.40;87.60;;;;;;5114412;28;21027;-84
2021/06/20 07:29:28;;;;;;;6.27;4.80;;;24.60;85.50;;;;;;5114555;28;20603;-84
2021/06/20 07:31:55;;;;;;;6.20;4.83;;;24.80;85.90;;;;;;5113953;28;21168;-83
2021/06/20 07:34:22;;;;;;;8.53;4.93;;;24.90;85.00;;;;;;5114421;28;20619;-84
2021/06/20 07:36:51;;;;;;;10.93;4.57;;;25.00;83.00;;;;;;5114421;28;20678;-84
2021/06/20 07:39:19;;;;;;;6.10;4.33;;;25.00;81.70;;;;;;5114347;28;20660;-84
2021/06/20 07:41:47;;;;;;;12.50;5.40;;;25.00;81.30;;;;;;5114090;28;20627;-84
2021/06/20 07:44:14;;;;;;;6.30;4.70;;;25.00;82.10;;;;;;5114158;28;20654;-84
2021/06/20 07:46:41;;;;;;;6.17;4.83;;;25.10;82.30;;;;;;5113055;28;21525;-84
2021/06/20 07:49:08;;;;;;;9.70;4.47;;;25.00;83.70;;;;;;5114004;28;21414;-84
2021/06/20 07:51:35;;;;;;;7.23;4.53;;;25.10;83.00;;;;;;5113944;28;20661;-83
2021/06/20 07:54:03;;;;;;;8.93;4.07;;;25.10;81.80;;;;;;5095100;28;20618;-84
2021/06/20 07:56:31;;;;;;;7.03;4.27;;;25.10;81.20;;;;;;5093542;28;20627;-83
2021/06/20 07:58:58;;;;;;;12.47;4.40;;;25.10;81.00;;;;;;5093475;28;20596;-83
2021/06/20 08:01:25;;;;;;;7.17;5.53;;;25.00;80.30;;;;;;5093510;28;20609;-84
2021/06/20 08:03:52;;;;;;;8.10;4.20;;;25.00;80.80;;;;;;5093663;28;20608;-83
2021/06/20 08:06:19;;;;;;;7.63;3.83;;;25.00;81.20;;;;;;5101779;28;20665;-84
2021/06/20 08:08:48;;;;;;;6.67;4.90;;;25.00;79.80;;;;;;5102940;28;20623;-83
2021/06/20 08:11:16;;;;;;;4.60;3.77;;;25.00;79.70;;;;;;5092984;28;20630;-83
2021/06/20 08:13:44;;;;;;;10.53;5.00;;;25.00;80.30;;;;;;5092871;28;21065;-84
2021/06/20 08:16:11;;;;;;;7.13;3.83;;;24.90;81.30;;;;;;5092906;28;20620;-85
2021/06/20 08:18:38;;;;;;;5.53;3.73;;;25.10;78.90;;;;;;5093084;28;20655;-84
2021/06/20 08:21:05;;;;;;;14.23;4.23;;;25.10;79.00;;;;;;5093038;28;20698;-84
2021/06/20 08:23:32;;;;;;;5.40;4.17;;;25.10;79.00;;;;;;5096673;28;20615;-84
2021/06/20 08:25:59;;;;;;;7.27;4.50;;;25.10;79.70;;;;;;5113056;28;20639;-83
2021/06/20 08:28:26;;;;;;;5.07;4.23;;;25.00;79.40;;;;;;5112615;28;20653;-84
2021/06/20 08:30:54;;;;;;;9.90;4.70;;;25.00;80.50;;;;;;5113208;28;20620;-83
2021/06/20 08:33:21;;;;;;;6.83;4.63;;;25.00;80.80;;;;;;5112919;28;20627;-84
2021/06/20 08:35:48;;;;;;;9.83;5.50;;;25.00;81.00;;;;;;5113033;28;20643;-83
2021/06/20 08:38:15;;;;;;;8.87;4.87;;;25.10;82.30;;;;;;5112972;28;20709;-84
2021/06/20 08:40:43;;;;;;;7.97;4.60;;;25.10;80.20;;;;;;5112408;28;20618;-84
2021/06/20 08:43:10;;;;;;;13.17;4.87;;;25.30;79.90;;;;;;5113030;28;20623;-84
2021/06/20 08:45:37;;;;;;;4.83;4.40;;;25.40;79.10;;;;;;5112814;28;20592;-84
2021/06/20 08:48:11;;;;;;;15.77;5.70;;;25.50;79.30;;;;;;5112141;28;20990;-83
2021/06/20 08:50:38;;;;;;;13.00;5.40;;;25.50;79.50;;;;;;5094713;28;20956;-83
2021/06/20 08:53:05;;;;;;;11.90;5.27;;;25.80;77.40;;;;;;5112537;28;20670;-84
2021/06/20 08:55:32;;;;;;;6.70;5.60;;;25.80;77.10;;;;;;5112223;28;21205;-83
2021/06/20 08:58:17;;;;;;;8.80;5.47;;;25.80;78.40;;;;;;5112564;28;20728;-83
2021/06/20 09:00:44;;;;;;;10.37;4.90;;;25.70;77.90;;;;;;5112793;28;20615;-84
2021/06/20 09:03:12;;;;;;;11.20;6.63;;;25.70;79.00;;;;;;5112639;28;20620;-83
2021/06/20 09:05:40;;;;;;;9.03;5.90;;;25.50;80.80;;;;;;5112121;28;20979;-83
2021/06/20 09:08:15;;;;;;;10.53;5.40;;;25.40;80.30;;;;;;5112305;28;20627;-83
2021/06/20 09:10:43;;;;;;;14.03;5.83;;;25.50;82.00;;;;;;5112208;28;20627;-83
2021/06/20 09:13:12;;;;;;;7.33;4.83;;;25.50;80.30;;;;;;5112640;28;20662;-83
2021/06/20 09:15:39;;;;;;;12.00;5.07;;;25.70;80.00;;;;;;5112463;28;20612;-84
2021/06/20 09:18:10;;;;;;;8.17;5.70;;;25.80;78.50;;;;;;5112334;28;20643;-83
2021/06/20 09:20:40;;;;;;;9.40;4.73;;;25.80;79.90;;;;;;5111662;28;20622;-83
2021/06/20 09:23:09;;;;;;;5.30;4.80;;;25.90;77.20;;;;;;5112286;28;20630;-84
2021/06/20 09:25:37;;;;;;;7.60;5.17;;;25.90;77.40;;;;;;5112151;28;20624;-83
2021/06/20 09:28:05;;;;;;;6.73;4.40;;;25.90;77.30;;;;;;5112038;28;20673;-84
2021/06/20 09:30:35;;;;;;;8.20;4.03;;;25.90;77.50;;;;;;5112004;28;20643;-83
2021/06/20 09:33:03;;;;;;;11.53;4.03;;;25.80;75.90;;;;;;5112025;28;20680;-84
2021/06/20 09:35:40;;;;;;;8.83;4.70;;;25.80;77.10;;;;;;5112031;28;20753;-84
2021/06/20 09:38:09;;;;;;;6.80;4.73;;;25.90;76.60;;;;;;5111977;28;20735;-84
2021/06/20 09:40:36;;;;;;;12.33;4.20;;;26.10;75.70;;;;;;5111736;28;20624;-85
2021/06/20 09:43:12;;;;;;;5.50;4.67;;;26.20;74.30;;;;;;5111756;28;20616;-84
2021/06/20 09:45:42;;;;;;;10.43;4.37;;;26.30;73.90;;;;;;5111953;28;21043;-84
2021/06/20 09:48:09;;;;;;;6.23;5.00;;;26.40;72.50;;;;;;5111921;28;20661;-84
2021/06/20 09:50:38;;;;;;;6.23;3.73;;;26.50;73.90;;;;;;5111187;28;20670;-85
2021/06/20 09:53:06;;;;;;;5.03;3.30;;;26.70;68.90;;;;;;5111481;28;20612;-84
2021/06/20 09:55:35;;;;;;;5.60;3.10;;;26.70;67.40;;;;;;5111285;28;20600;-83
2021/06/20 09:58:03;;;;;;;6.07;3.43;;;26.80;67.60;;;;;;5111711;28;21137;-83
2021/06/20 10:00:41;;;;;;;10.60;2.67;;;26.90;64.40;;;;;;5111678;28;20632;-83
2021/06/20 10:03:09;;;;;;;5.70;3.00;;;26.80;64.70;;;;;;5111686;28;20672;-83
2021/06/20 10:05:37;;;;;;;4.80;2.90;;;26.50;63.30;;;;;;5111826;28;20631;-83
2021/06/20 10:08:05;;;;;;;3.80;2.63;;;26.60;64.50;;;;;;5111343;28;20647;-84
2021/06/20 10:10:33;;;;;;;6.53;2.80;;;26.50;65.00;;;;;;5110796;28;21248;-84
2021/06/20 10:13:00;;;;;;;3.77;2.50;;;26.60;63.10;;;;;;5111252;28;20643;-84
2021/06/20 10:15:30;;;;;;;2.93;2.40;;;26.70;63.50;;;;;;5111256;28;20703;-84
2021/06/20 10:18:00;;;;;;;9.70;3.00;;;26.70;62.80;;;;;;5111363;28;20746;-83
2021/06/20 10:20:33;;;;;;;4.77;2.60;;;26.80;60.80;;;;;;5111562;28;20618;-84
2021/06/20 10:23:01;;;;;;;11.50;2.90;;;26.70;61.60;;;;;;5111020;28;20615;-84
2021/06/20 10:25:30;;;;;;;6.30;2.60;;;26.60;62.20;;;;;;5111516;27;20640;-84
2021/06/20 10:28:01;;;;;;;5.73;2.67;;;26.50;62.80;;;;;;5111457;28;20665;-84
2021/06/20 10:30:33;;;;;;;4.53;3.50;;;26.40;63.30;;;;;;5108852;28;20624;-84
2021/06/20 10:33:09;;;;;;;4.30;2.43;;;26.40;64.40;;;;;;5102066;28;20615;-84
2021/06/20 10:35:41;;;;;;;6.40;2.60;;;26.60;63.10;;;;;;5095185;28;22585;-85
2021/06/20 10:38:32;;;;;;;6.00;4.00;;;26.70;63.50;;;;;;5110849;28;20685;-83
2021/06/20 10:41:00;;;;;;;4.10;2.50;;;26.60;63.90;;;;;;5109073;28;20632;-83
2021/06/20 10:43:29;;;;;;;6.30;3.13;;;26.60;64.20;;;;;;5110764;28;20641;-85
2021/06/20 10:45:56;;;;;;;4.50;3.53;;;26.70;64.00;;;;;;5110650;28;20659;-84
2021/06/20 10:48:24;;;;;;;6.50;2.70;;;26.70;64.00;;;;;;5110595;28;21047;-84
2021/06/20 10:50:53;;;;;;;4.63;2.63;;;26.70;63.50;;;;;;5110476;28;20677;-82
2021/06/20 10:53:24;;;;;;;7.33;2.93;;;26.80;63.30;;;;;;5100993;28;20616;-84
2021/06/20 10:55:53;;;;;;;6.23;3.13;;;26.80;64.30;;;;;;5110384;28;21185;-84
2021/06/20 10:58:25;;;;;;;6.27;2.83;;;27.00;63.10;;;;;;5097353;28;20999;-83
2021/06/20 11:01:05;;;;;;;3.30;3.00;;;27.10;64.50;;;;;;5091539;28;20612;-84
2021/06/20 11:03:33;;;;;;;4.50;2.80;;;27.20;64.20;;;;;;5096427;28;20620;-85
2021/06/20 11:06:13;;;;;;;6.93;3.70;;;27.60;63.70;;;;;;5110679;28;20756;-85
2021/06/20 11:08:42;;;;;;;6.70;2.90;;;27.70;62.90;;;;;;5110316;28;20627;-85
2021/06/20 11:11:15;;;;;;;4.37;3.47;;;27.90;62.50;;;;;;5110661;28;20765;-85
2021/06/20 11:13:44;;;;;;;6.10;3.30;;;27.90;62.70;;;;;;5110699;28;20626;-85
2021/06/20 11:16:14;;;;;;;4.30;2.57;;;28.10;63.70;;;;;;5109563;28;21019;-84
2021/06/20 11:18:42;;;;;;;8.37;4.07;;;28.40;62.20;;;;;;5109126;28;20655;-85
2021/06/20 11:21:09;;;;;;;5.57;3.33;;;28.50;61.00;;;;;;5109317;28;21116;-85
2021/06/20 11:23:40;;;;;;;7.60;3.33;;;28.60;61.90;;;;;;5110725;28;20612;-84
2021/06/20 11:26:07;;;;;;;4.70;3.20;;;29.10;60.50;;;;;;5110392;28;20622;-85
2021/06/20 11:28:35;;;;;;;6.83;3.70;;;29.50;60.10;;;;;;5110572;28;20615;-84
2021/06/20 11:31:07;;;;;;;5.77;3.47;;;29.70;60.80;;;;;;5110091;28;20672;-84
2021/06/20 11:33:36;;;;;;;6.60;3.80;;;29.90;59.70;;;;;;5109772;28;20676;-84
2021/06/20 11:36:04;;;;;;;3.97;3.50;;;30.30;59.00;;;;;;5109925;28;20637;-84
2021/06/20 11:38:33;;;;;;;9.97;3.50;;;30.50;57.40;;;;;;5110320;28;20667;-85
2021/06/20 11:41:10;;;;;;;6.47;3.10;;;30.80;56.90;;;;;;5110126;28;20688;-85
2021/06/20 11:43:40;;;;;;;6.23;3.37;;;31.10;57.50;;;;;;5110255;28;20612;-85
2021/06/20 11:46:16;;;;;;;4.30;2.80;;;31.30;55.50;;;;;;5113108;28;20608;-83
2021/06/20 11:48:56;;;;;;;6.60;3.43;;;31.50;56.70;;;;;;5113583;28;20619;-84
2021/06/20 11:51:39;;;;;;;7.03;3.30;;;31.90;54.90;;;;;;5113710;28;20611;-85
2021/06/20 11:54:14;;;;;;;12.50;4.10;;;32.10;54.70;;;;;;5113810;28;20606;-85
2021/06/20 11:56:44;;;;;;;6.43;3.67;;;32.50;53.80;;;;;;5112855;28;20664;-85
2021/06/20 11:59:12;;;;;;;4.40;2.87;;;32.50;53.80;;;;;;5113721;28;20647;-85
2021/06/20 12:01:42;;;;;;;4.80;3.80;;;32.80;53.00;;;;;;5113468;28;20619;-85
2021/06/20 12:04:11;;;;;;;7.37;3.33;;;33.10;51.80;;;;;;5113077;27;21190;-86
2021/06/20 12:06:38;;;;;;;6.43;3.20;;;33.20;51.40;;;;;;5112898;28;20603;-85
2021/06/20 12:09:08;;;;;;;6.83;3.80;;;33.70;51.20;;;;;;5113062;28;21201;-86
2021/06/20 12:11:36;;;;;;;6.47;3.20;;;34.20;50.40;;;;;;5112400;27;20654;-86
2021/06/20 12:14:04;;;;;;;4.80;3.03;;;34.40;50.20;;;;;;5113415;28;20611;-84
2021/06/20 12:16:31;;;;;;;5.50;3.40;;;34.80;49.70;;;;;;5112891;28;20642;-84
2021/06/20 12:18:59;;;;;;;8.13;3.60;;;35.20;47.90;;;;;;5112674;28;21014;-85
2021/06/20 12:21:29;;;;;;;6.17;3.50;;;34.80;48.00;;;;;;5112785;28;20610;-86
2021/06/20 12:23:58;;;;;;;11.80;3.87;;;34.60;48.10;;;;;;5113293;28;20625;-87
2021/06/20 12:26:26;;;;;;;9.07;3.37;;;34.40;48.50;;;;;;5112973;28;20619;-86
2021/06/20 12:28:53;;;;;;;7.60;4.13;;;34.80;48.70;;;;;;5113274;28;20620;-86
2021/06/20 12:31:20;;;;;;;7.00;3.67;;;35.40;48.50;;;;;;5112880;28;20619;-86
2021/06/20 12:33:47;;;;;;;5.40;3.40;;;36.00;47.40;;;;;;5112399;28;20617;-86
2021/06/20 12:36:15;;;;;;;7.13;4.07;;;36.30;46.20;;;;;;5111870;28;20642;-87
2021/06/20 12:38:54;;;;;;;9.20;4.23;;;36.60;45.50;;;;;;5112746;28;20643;-87
2021/06/20 12:41:25;;;;;;;8.87;4.43;;;37.00;44.90;;;;;;5112760;28;21147;-86
2021/06/20 12:44:04;;;;;;;6.93;4.70;;;37.00;45.10;;;;;;5112859;28;20621;-86
2021/06/20 12:46:33;;;;;;;11.90;4.20;;;37.20;44.20;;;;;;5111959;28;20619;-87
2021/06/20 12:49:06;;;;;;;10.93;4.07;;;37.30;43.80;;;;;;5112319;28;20619;-86
2021/06/20 12:51:35;;;;;;;11.17;4.07;;;37.00;43.90;;;;;;5112476;28;20599;-87